< < Back
Terminal Aerodrome Forecast


Current Version              Previous Versions:   1  2  3  4  5  6  7  8  9  

Terminal Aerodrome Forecast

641
FTUS42 KTAE 290806 AAA
TAFABY
TAF AMD
KABY 290806Z 2908/3006 VRB02KT 1/2SM FG BKN002
     FM291300 27004KT P6SM SCT010
     FM291900 31006KT 5SM -TSRA BKN040CB
     FM300000 20006KT P6SM SCT060=



Latest METAR

336
SAUS70 KWBC 291600 RRM
MTRABY
METAR KABY 291553Z VRB05KT 10SM BKN022 29/23 A3000 RMK AO2 SLP158
T02940228


USA.gov is the U.S. government's official web portal to all federal, state and local government web resources and services.